Inverness, FL (34450)

6:25 PM EDT on March 27, 2017 (GMT -0400)
Sunrise Lake Estates | | Change Station

Elev 69 ft 28.82 °N, 82.28 °W | Updated 15 seconds ago

Haze
Haze
83.6 °F
Feels Like 83 °F
N
2.0
Wind Variable Wind from East

Today
High -- | Low -- °F
--% Chance of Precip.
Yesterday
High -- | Low -- °F
Precip. -- in
Pressure 30.00 in
Visibility 2.0 miles
Clouds Clear
Heat Index 83 °F
Dew Point 57 °F
Humidity 40%
Rainfall 0.00 in
Snow Depth Not available.
7:24 AM 7:44 PM
Waning Crescent, 0% visible
METAR KINF 272215Z AUTO 10003KT 2SM HZ CLR 28/14 A3000 RMK AO2
Pressure 30.00 in
Visibility 2.0 miles
Clouds Clear
Heat Index 83 °F
Dew Point 57 °F
Humidity 40%
Rainfall 0.00 in
Snow Depth Not available.
7:24 AM 7:44 PM
Waning Crescent, 0% visible
METAR KINF 272215Z AUTO 10003KT 2SM HZ CLR 28/14 A3000 RMK AO2

Get Severe Weather Alerts

Thanks for signing up!

Be on the lookout for a verification email in your inbox.

You'll start receiving the daily forecast at 8 AM.

×

10-Day Weather Forecast

Almanac

Astronomy

Mar. 27, 2017 Rise Set
Actual Time
Civil Twilight
Nautical Twilight
Astronomical Twilight
Moon
Length of Visible Light
Length of Day
Tomorrow will be .
, % of the Moon is Illuminated

Today's Extremes

State Highs State Lows

Community

WunderPhotos

Upload Photos

1,962,540 photos uploaded!

WunderBlog® & News

Nearby

Air Quality

  Air Quality AQ Index Pollutant
Not available.

Snow Depth

Station Depth Elevation

Earthquake Activity

City Distance Mag. Time & Date
Minimum magnitude displayed is 2.5.

Earthquake Activity

City Distance Mag. Time & Date
Minimum magnitude displayed is 2.5.

Coastal Water Temperatures

Place Temperature

Stations

Nearby Weather Stations

Station Location Temp. Windchill Dew Point Humidity Wind Precip. Elev Updated Type
                   

Watches & Warnings

There are currently no watches in effect.